WXM80 ListenWXM80 Stop

You find our weather info also at:

UK Metoffice

WeatherCloud

Weather Underground

Northeastern Weather Network

AWEKAS

Citizen Weather Observer Program (CWOP)

HAMweather, WeatherForYou, PWS Weather


Weather Underground History page Text

Daily Summary for November 20, 2017 Units:  English    Metric   Both
« Previous Day
Next Day »
Daily Weekly Monthly Yearly Custom
  High: Low: Average:
Temperature: 46.4 °F 37.9 °F 41.7 °F
Dew Point: 34.2 °F 25.3 °F 29 °F
Humidity: 74 % 48 % 61 %
Wind Speed: 11.2 mph 0.3 mph 5.2 mph
Wind Gust: 23.0 mph - -
Wind:- - WSW
Pressure: 30.16 in 29.79 in -
Precipitation: 0.00 in    
Historical Graphs
 
 
Tabular Data for November 20, 2017
Time Temperature Dew Point Pressure Wind Wind Speed Wind Gust Humidity Rainfall Rate (Hourly)
00:02 42.3 °F 33.9 °F 29.79 in WSW 8.8 mph 12.7 mph 72 % 0.00 in
00:17 41.9 °F 34.2 °F 29.79 in SSW 5.1 mph 11.0 mph 74 % 0.00 in
00:27 41.7 °F 34.0 °F 29.80 in WSW 8.6 mph 16.1 mph 74 % 0.00 in
00:28 41.7 °F 34.0 °F 29.80 in WNW 5.7 mph 12.7 mph 74 % 0.00 in
00:33 41.6 °F 33.9 °F 29.81 in WSW 4.3 mph 7.0 mph 74 % 0.00 in
00:48 41.2 °F 33.5 °F 29.81 in West 6.8 mph 11.5 mph 74 % 0.00 in
00:53 41.1 °F 33.1 °F 29.81 in WNW 6.1 mph 10.0 mph 73 % 0.00 in
00:59 41.1 °F 33.1 °F 29.81 in WSW 5.8 mph 11.5 mph 73 % 0.00 in
01:04 41.0 °F 33.0 °F 29.81 in West 4.5 mph 10.4 mph 73 % 0.00 in
01:09 40.9 °F 32.9 °F 29.81 in WSW 5.0 mph 8.1 mph 73 % 0.00 in
01:14 40.8 °F 32.8 °F 29.81 in West 2.6 mph 8.1 mph 73 % 0.00 in
01:24 40.7 °F 32.7 °F 29.81 in West 5.8 mph 10.4 mph 73 % 0.00 in
01:29 40.6 °F 32.6 °F 29.81 in SW 5.1 mph 10.4 mph 73 % 0.00 in
01:34 40.7 °F 32.7 °F 29.82 in West 4.7 mph 9.2 mph 73 % 0.00 in
01:39 40.7 °F 32.7 °F 29.82 in WNW 6.9 mph 15.0 mph 73 % 0.00 in
01:44 40.7 °F 32.7 °F 29.83 in SW 6.5 mph 10.0 mph 73 % 0.00 in
01:49 40.7 °F 32.7 °F 29.83 in SW 5.9 mph 15.0 mph 73 % 0.00 in
01:54 40.6 °F 32.3 °F 29.83 in West 6.6 mph 11.5 mph 72 % 0.00 in
01:59 40.6 °F 32.3 °F 29.83 in SW 6.1 mph 9.2 mph 72 % 0.00 in
02:04 40.5 °F 32.2 °F 29.83 in NW 2.4 mph 8.1 mph 72 % 0.00 in
02:15 40.5 °F 31.5 °F 29.84 in West 4.7 mph 11.5 mph 70 % 0.00 in
02:20 40.4 °F 31.4 °F 29.85 in WSW 5.3 mph 11.5 mph 70 % 0.00 in
02:25 40.4 °F 31.7 °F 29.85 in NW 8.8 mph 11.5 mph 71 % 0.00 in
02:30 40.3 °F 31.6 °F 29.85 in WSW 3.0 mph 9.2 mph 71 % 0.00 in
02:40 40.3 °F 31.6 °F 29.86 in WNW 4.6 mph 9.2 mph 71 % 0.00 in
02:42 40.3 °F 31.3 °F 29.86 in NW 6.5 mph 14.0 mph 70 % 0.00 in
02:47 40.3 °F 30.9 °F 29.88 in WNW 5.9 mph 16.1 mph 69 % 0.00 in
02:57 40.4 °F 29.9 °F 29.88 in West 7.1 mph 9.2 mph 66 % 0.00 in
03:07 40.3 °F 27.1 °F 29.89 in WNW 8.8 mph 15.0 mph 59 % 0.00 in
03:12 40.2 °F 26.6 °F 29.89 in NW 9.4 mph 23.0 mph 58 % 0.00 in
03:22 40.2 °F 26.6 °F 29.90 in NW 10.3 mph 21.0 mph 58 % 0.00 in
03:32 40.1 °F 26.1 °F 29.90 in WNW 9.9 mph 13.8 mph 57 % 0.00 in
03:37 40.0 °F 26.4 °F 29.89 in WNW 7.1 mph 12.0 mph 58 % 0.00 in
03:43 40.0 °F 27.2 °F 29.89 in NW 7.3 mph 17.3 mph 60 % 0.00 in
03:58 39.6 °F 26.0 °F 29.91 in WNW 5.9 mph 17.3 mph 58 % 0.00 in
04:03 39.5 °F 25.9 °F 29.92 in WNW 9.3 mph 17.3 mph 58 % 0.00 in
04:08 39.4 °F 26.2 °F 29.92 in NW 7.2 mph 12.0 mph 59 % 0.00 in
04:13 39.3 °F 26.2 °F 29.92 in West 6.6 mph 17.3 mph 59 % 0.00 in
04:18 39.1 °F 26.0 °F 29.93 in NW 7.3 mph 13.8 mph 59 % 0.00 in
04:23 39.0 °F 26.3 °F 29.93 in West 7.8 mph 11.5 mph 60 % 0.00 in
04:28 38.8 °F 25.3 °F 29.93 in NW 8.8 mph 11.5 mph 58 % 0.00 in
04:38 38.6 °F 25.5 °F 29.94 in NW 2.4 mph 6.9 mph 59 % 0.00 in
04:43 38.5 °F 25.4 °F 29.93 in WNW 6.1 mph 9.2 mph 59 % 0.00 in
04:48 38.5 °F 25.8 °F 29.94 in NW 1.5 mph 3.5 mph 60 % 0.00 in
04:53 38.4 °F 25.7 °F 29.94 in SW 4.7 mph 10.0 mph 60 % 0.00 in
05:07 38.2 °F 25.5 °F 29.95 in WNW 4.7 mph 11.5 mph 60 % 0.00 in
05:17 38.1 °F 25.4 °F 29.95 in WNW 9.2 mph 13.8 mph 60 % 0.00 in
05:22 38.1 °F 25.8 °F 29.95 in WSW 8.5 mph 13.8 mph 61 % 0.00 in
05:27 38.1 °F 25.8 °F 29.95 in NW 4.0 mph 11.5 mph 61 % 0.00 in
05:32 38.0 °F 25.7 °F 29.95 in West 5.1 mph 10.4 mph 61 % 0.00 in
05:37 38.0 °F 26.1 °F 29.95 in SW 3.6 mph 11.5 mph 62 % 0.00 in
05:47 37.9 °F 26.0 °F 29.96 in SW 5.9 mph 17.3 mph 62 % 0.00 in
05:57 38.0 °F 26.5 °F 29.97 in SW 7.3 mph 17.3 mph 63 % 0.00 in
06:02 38.0 °F 26.1 °F 29.97 in West 7.8 mph 18.4 mph 62 % 0.00 in
06:07 38.0 °F 26.5 °F 29.97 in SW 5.1 mph 9.0 mph 63 % 0.00 in
06:17 38.0 °F 26.5 °F 29.98 in SW 6.1 mph 16.0 mph 63 % 0.00 in
06:22 38.0 °F 26.1 °F 29.98 in WNW 4.5 mph 10.4 mph 62 % 0.00 in
06:27 38.0 °F 26.1 °F 29.98 in WNW 6.9 mph 10.4 mph 62 % 0.00 in
06:43 38.0 °F 26.9 °F 30.00 in WNW 4.8 mph 11.5 mph 64 % 0.00 in
06:58 38.0 °F 26.5 °F 30.00 in SSW 4.3 mph 11.5 mph 63 % 0.00 in
07:03 38.0 °F 27.3 °F 30.00 in West 4.4 mph 9.2 mph 65 % 0.00 in
07:08 38.0 °F 26.9 °F 30.00 in West 8.8 mph 15.0 mph 64 % 0.00 in
07:13 38.0 °F 26.5 °F 30.01 in SW 10.8 mph 19.6 mph 63 % 0.00 in
07:18 38.1 °F 26.6 °F 30.01 in WSW 5.5 mph 15.0 mph 63 % 0.00 in
07:23 38.3 °F 26.8 °F 30.01 in WSW 4.3 mph 8.1 mph 63 % 0.00 in
07:28 38.4 °F 26.5 °F 30.02 in WNW 6.6 mph 13.0 mph 62 % 0.00 in
07:33 38.4 °F 26.9 °F 30.02 in NNW 7.0 mph 13.0 mph 63 % 0.00 in
07:53 38.5 °F 26.6 °F 30.03 in NW 7.4 mph 14.0 mph 62 % 0.00 in
07:58 38.6 °F 27.5 °F 30.03 in NW 6.8 mph 9.2 mph 64 % 0.00 in
08:03 38.7 °F 27.6 °F 30.03 in WSW 5.8 mph 9.2 mph 64 % 0.00 in
08:14 38.9 °F 27.4 °F 30.03 in West 9.5 mph 19.6 mph 63 % 0.00 in
08:19 39.0 °F 27.8 °F 30.04 in SW 6.0 mph 11.5 mph 64 % 0.00 in
08:24 39.1 °F 28.3 °F 30.04 in WNW 6.4 mph 11.5 mph 65 % 0.00 in
08:29 39.2 °F 28.8 °F 30.03 in WSW 7.3 mph 15.0 mph 66 % 0.00 in
08:34 39.2 °F 28.4 °F 30.04 in West 10.3 mph 16.1 mph 65 % 0.00 in
08:39 39.3 °F 28.9 °F 30.04 in West 6.2 mph 10.4 mph 66 % 0.00 in
08:44 39.3 °F 28.5 °F 30.04 in WSW 10.4 mph 15.0 mph 65 % 0.00 in
08:54 39.7 °F 28.1 °F 30.04 in WNW 11.2 mph 19.6 mph 63 % 0.00 in
08:59 40.0 °F 28.8 °F 30.04 in NW 7.1 mph 16.1 mph 64 % 0.00 in
09:04 40.4 °F 29.2 °F 30.04 in West 9.8 mph 17.0 mph 64 % 0.00 in
09:09 40.5 °F 28.9 °F 30.05 in SW 3.4 mph 8.1 mph 63 % 0.00 in
09:14 40.6 °F 29.0 °F 30.05 in WSW 6.1 mph 11.5 mph 63 % 0.00 in
09:24 40.6 °F 29.7 °F 30.05 in WNW 4.3 mph 9.2 mph 65 % 0.00 in
09:34 40.5 °F 30.0 °F 30.06 in NW 4.9 mph 8.1 mph 66 % 0.00 in
09:39 40.4 °F 29.2 °F 30.05 in WNW 7.3 mph 16.1 mph 64 % 0.00 in
09:44 40.3 °F 29.5 °F 30.05 in WSW 8.5 mph 13.0 mph 65 % 0.00 in
09:49 40.2 °F 30.1 °F 30.06 in SW 8.8 mph 12.7 mph 67 % 0.00 in
09:54 40.1 °F 30.0 °F 30.05 in West 3.0 mph 6.9 mph 67 % 0.00 in
09:59 40.0 °F 29.9 °F 30.06 in West 6.0 mph 11.5 mph 67 % 0.00 in
10:04 40.0 °F 29.9 °F 30.06 in West 6.1 mph 11.5 mph 67 % 0.00 in
10:17 40.3 °F 30.6 °F 30.05 in WNW 6.4 mph 11.5 mph 68 % 0.00 in
10:27 41.1 °F 30.6 °F 30.06 in West 5.2 mph 9.2 mph 66 % 0.00 in
10:32 41.4 °F 30.1 °F 30.06 in WSW 7.5 mph 15.0 mph 64 % 0.00 in
10:37 41.7 °F 30.0 °F 30.06 in West 4.9 mph 8.1 mph 63 % 0.00 in
10:38 41.7 °F 30.0 °F 30.06 in West 6.4 mph 9.2 mph 63 % 0.00 in
10:43 41.7 °F 30.0 °F 30.05 in NW 5.5 mph 10.4 mph 63 % 0.00 in
10:48 41.7 °F 29.2 °F 30.06 in WNW 6.0 mph 7.0 mph 61 % 0.00 in
10:49 41.6 °F 29.1 °F 30.06 in WNW 7.6 mph 13.8 mph 61 % 0.00 in
10:54 41.5 °F 29.4 °F 30.05 in WSW 5.6 mph 10.4 mph 62 % 0.00 in
11:09 41.3 °F 29.6 °F 30.05 in West 9.5 mph 20.0 mph 63 % 0.00 in
11:14 41.3 °F 29.6 °F 30.05 in SW 3.2 mph 9.2 mph 63 % 0.00 in
11:19 41.4 °F 30.1 °F 30.05 in NW 6.1 mph 8.1 mph 64 % 0.00 in
11:29 41.7 °F 29.2 °F 30.05 in West 8.1 mph 11.5 mph 61 % 0.00 in
11:34 41.8 °F 28.9 °F 30.05 in WNW 6.4 mph 12.7 mph 60 % 0.00 in
11:39 42.0 °F 29.1 °F 30.04 in WNW 4.1 mph 10.4 mph 60 % 0.00 in
11:40 42.1 °F 29.2 °F 30.04 in NW 3.9 mph 6.0 mph 60 % 0.00 in
11:45 42.3 °F 29.4 °F 30.05 in SW 7.0 mph 13.8 mph 60 % 0.00 in
11:50 42.4 °F 29.5 °F 30.04 in WNW 4.2 mph 11.5 mph 60 % 0.00 in
11:55 42.6 °F 29.3 °F 30.04 in NW 3.3 mph 10.4 mph 59 % 0.00 in
12:00 42.7 °F 29.8 °F 30.04 in West 5.1 mph 9.0 mph 60 % 0.00 in
12:02 42.8 °F 30.3 °F 30.04 in West 6.1 mph 9.2 mph 61 % 0.00 in
12:07 43.0 °F 30.1 °F 30.04 in West 5.7 mph 11.5 mph 60 % 0.00 in
12:12 43.1 °F 29.7 °F 30.04 in West 5.7 mph 11.5 mph 59 % 0.00 in
12:17 43.2 °F 30.2 °F 30.04 in WSW 8.2 mph 12.7 mph 60 % 0.00 in
12:22 43.2 °F 29.8 °F 30.04 in WSW 2.5 mph 4.6 mph 59 % 0.00 in
12:27 43.3 °F 30.3 °F 30.04 in WNW 3.9 mph 6.0 mph 60 % 0.00 in
12:32 43.5 °F 30.1 °F 30.03 in WSW 7.0 mph 12.7 mph 59 % 0.00 in
12:36 43.7 °F 29.9 °F 30.03 in SW 7.1 mph 10.4 mph 58 % 0.00 in
12:41 43.8 °F 29.5 °F 30.03 in WSW 6.0 mph 8.0 mph 57 % 0.00 in
12:51 44.1 °F 29.8 °F 30.03 in West 5.7 mph 11.5 mph 57 % 0.00 in
13:02 44.3 °F 28.2 °F 30.03 in NW 5.3 mph 16.1 mph 53 % 0.00 in
13:07 44.3 °F 29.1 °F 30.03 in WSW 0.4 mph 8.1 mph 55 % 0.00 in
13:12 44.4 °F 28.8 °F 30.03 in West 4.4 mph 13.8 mph 54 % 0.00 in
13:17 44.7 °F 29.1 °F 30.03 in WNW 7.7 mph 13.8 mph 54 % 0.00 in
13:22 44.8 °F 28.7 °F 30.03 in WSW 6.6 mph 10.4 mph 53 % 0.00 in
13:27 45.0 °F 28.4 °F 30.03 in West 5.3 mph 9.2 mph 52 % 0.00 in
13:32 45.3 °F 28.7 °F 30.03 in WNW 6.4 mph 11.5 mph 52 % 0.00 in
13:42 46.0 °F 28.4 °F 30.03 in West 7.4 mph 11.5 mph 50 % 0.00 in
13:47 46.3 °F 28.2 °F 30.03 in WNW 8.0 mph 12.7 mph 49 % 0.00 in
14:01 46.4 °F 27.8 °F 30.04 in WNW 5.8 mph 13.0 mph 48 % 0.00 in
14:06 46.4 °F 28.3 °F 30.04 in West 2.0 mph 13.0 mph 49 % 0.00 in
14:11 46.4 °F 27.7 °F 30.04 in WSW 5.0 mph 16.0 mph 48 % 0.00 in
14:21 46.2 °F 28.1 °F 30.04 in West 8.0 mph 14.0 mph 49 % 0.00 in
14:26 46.2 °F 29.0 °F 30.05 in West 5.0 mph 10.0 mph 51 % 0.00 in
14:31 46.1 °F 28.5 °F 30.04 in WSW 5.8 mph 11.5 mph 50 % 0.00 in
14:36 46.1 °F 28.5 °F 30.05 in WNW 6.0 mph 16.0 mph 50 % 0.00 in
14:51 46.0 °F 28.4 °F 30.05 in WSW 7.0 mph 12.0 mph 50 % 0.00 in
14:56 46.0 °F 28.4 °F 30.05 in West 3.9 mph 8.1 mph 50 % 0.00 in
15:01 46.0 °F 28.4 °F 30.06 in SSW 2.3 mph 4.6 mph 50 % 0.00 in
15:06 46.0 °F 28.4 °F 30.06 in SW 7.1 mph 16.1 mph 50 % 0.00 in
15:11 46.0 °F 28.9 °F 30.06 in WNW 6.1 mph 9.2 mph 51 % 0.00 in
15:16 46.0 °F 28.4 °F 30.06 in West 3.9 mph 6.9 mph 50 % 0.00 in
15:21 45.9 °F 28.3 °F 30.07 in West 2.9 mph 4.6 mph 50 % 0.00 in
15:26 45.8 °F 28.7 °F 30.07 in WNW 3.7 mph 5.8 mph 51 % 0.00 in
15:36 45.6 °F 28.5 °F 30.07 in SW 6.0 mph 9.2 mph 51 % 0.00 in
15:41 45.5 °F 28.9 °F 30.07 in West 1.9 mph 6.9 mph 52 % 0.00 in
15:46 45.4 °F 28.8 °F 30.07 in SW 3.1 mph 6.9 mph 52 % 0.00 in
15:51 45.3 °F 28.7 °F 30.07 in WNW 3.8 mph 12.0 mph 52 % 0.00 in
15:56 45.2 °F 28.6 °F 30.07 in WSW 6.0 mph 10.4 mph 52 % 0.00 in
16:02 45.2 °F 29.1 °F 30.08 in West 5.1 mph 8.1 mph 53 % 0.00 in
16:07 45.2 °F 29.1 °F 30.07 in SW 4.1 mph 11.5 mph 53 % 0.00 in
16:12 45.1 °F 29.0 °F 30.08 in SSW 3.6 mph 8.1 mph 53 % 0.00 in
16:17 45.0 °F 28.9 °F 30.08 in WSW 4.0 mph 8.1 mph 53 % 0.00 in
16:22 44.9 °F 28.8 °F 30.08 in SW 3.1 mph 6.9 mph 53 % 0.00 in
16:27 44.8 °F 29.2 °F 30.08 in WSW 5.6 mph 12.7 mph 54 % 0.00 in
16:32 44.7 °F 29.5 °F 30.08 in SSW 2.1 mph 9.2 mph 55 % 0.00 in
16:42 44.5 °F 28.9 °F 30.08 in SSW 4.6 mph 10.4 mph 54 % 0.00 in
16:47 44.3 °F 28.7 °F 30.08 in SSW 4.6 mph 10.4 mph 54 % 0.00 in
16:52 44.2 °F 28.6 °F 30.08 in SW 2.3 mph 3.5 mph 54 % 0.00 in
17:02 43.9 °F 28.8 °F 30.08 in SW 4.3 mph 8.0 mph 55 % 0.00 in
17:12 43.7 °F 28.6 °F 30.09 in SSW 4.2 mph 8.1 mph 55 % 0.00 in
17:17 43.7 °F 28.6 °F 30.09 in SW 2.4 mph 4.6 mph 55 % 0.00 in
17:22 43.6 °F 28.9 °F 30.09 in SSW 3.2 mph 6.9 mph 56 % 0.00 in
17:32 43.4 °F 28.7 °F 30.09 in SW 2.8 mph 5.8 mph 56 % 0.00 in
17:37 43.3 °F 28.6 °F 30.10 in SW 2.7 mph 4.6 mph 56 % 0.00 in
17:43 43.2 °F 29.0 °F 30.10 in SSW 2.3 mph 4.0 mph 57 % 0.00 in
17:48 43.1 °F 28.9 °F 30.10 in WSW 2.2 mph 2.3 mph 57 % 0.00 in
17:53 42.9 °F 29.1 °F 30.11 in SW 2.6 mph 5.8 mph 58 % 0.00 in
17:58 42.8 °F 29.0 °F 30.11 in WSW 2.0 mph 3.5 mph 58 % 0.00 in
18:08 42.7 °F 28.9 °F 30.11 in SSW 4.2 mph 9.0 mph 58 % 0.00 in
18:13 42.5 °F 28.8 °F 30.11 in SSW 4.2 mph 8.1 mph 58 % 0.00 in
18:18 42.5 °F 28.8 °F 30.11 in WSW 3.6 mph 6.9 mph 58 % 0.00 in
18:23 42.4 °F 29.1 °F 30.11 in SW 2.6 mph 4.0 mph 59 % 0.00 in
18:28 42.3 °F 29.0 °F 30.11 in SW 2.1 mph 4.6 mph 59 % 0.00 in
18:33 42.3 °F 29.0 °F 30.11 in West 2.2 mph 5.8 mph 59 % 0.00 in
18:43 42.2 °F 29.3 °F 30.12 in SW 0.9 mph 3.5 mph 60 % 0.00 in
18:48 42.1 °F 29.2 °F 30.12 in WSW 1.4 mph 3.5 mph 60 % 0.00 in
18:53 42.0 °F 29.1 °F 30.12 in SSW 0.9 mph 3.5 mph 60 % 0.00 in
19:03 41.9 °F 29.4 °F 30.12 in SSW 2.4 mph 3.5 mph 61 % 0.00 in
19:10 41.8 °F 29.3 °F 30.12 in SSW 0.7 mph 3.0 mph 61 % 0.00 in
19:16 41.7 °F 29.2 °F 30.12 in WSW 2.5 mph 8.1 mph 61 % 0.00 in
19:21 41.6 °F 28.7 °F 30.12 in WSW 4.3 mph 8.0 mph 60 % 0.00 in
19:29 41.5 °F 29.0 °F 29.88 in WSW 2.6 mph 5.0 mph 61 % 0.00 in
19:31 41.5 °F 29.0 °F 30.12 in SW 4.4 mph 4.6 mph 61 % 0.00 in
19:34 41.5 °F 29.0 °F 29.88 in SW 1.7 mph 4.6 mph 61 % 0.00 in
19:39 41.4 °F 28.9 °F 30.12 in SW 4.2 mph 8.0 mph 61 % 0.00 in
19:54 41.4 °F 29.3 °F 30.12 in SW 2.1 mph 5.0 mph 62 % 0.00 in
19:59 41.4 °F 29.3 °F 30.12 in SSW 2.4 mph 3.5 mph 62 % 0.00 in
20:09 41.3 °F 29.3 °F 30.13 in SW 1.7 mph 4.6 mph 62 % 0.00 in
20:19 41.2 °F 29.2 °F 30.13 in WSW 1.1 mph 3.5 mph 62 % 0.00 in
20:29 41.1 °F 29.1 °F 30.13 in SW 0.6 mph 1.2 mph 62 % 0.00 in
20:44 40.7 °F 29.1 °F 30.13 in WSW 2.0 mph 4.6 mph 63 % 0.00 in
20:49 40.6 °F 29.0 °F 30.13 in SSW 5.3 mph 6.9 mph 63 % 0.00 in
20:54 40.5 °F 28.9 °F 30.13 in SSW 6.5 mph 9.2 mph 63 % 0.00 in
20:59 40.5 °F 28.9 °F 30.13 in SW 2.1 mph 5.8 mph 63 % 0.00 in
21:04 40.5 °F 28.9 °F 30.13 in WSW 4.1 mph 7.0 mph 63 % 0.00 in
21:14 40.7 °F 28.7 °F 30.13 in SW 3.5 mph 6.9 mph 62 % 0.00 in
21:19 40.9 °F 28.9 °F 30.13 in WSW 2.1 mph 8.0 mph 62 % 0.00 in
21:30 41.3 °F 28.9 °F 30.12 in WSW 4.5 mph 8.1 mph 61 % 0.00 in
21:35 41.5 °F 28.6 °F 30.13 in SW 4.5 mph 13.0 mph 60 % 0.00 in
21:45 42.0 °F 28.7 °F 30.13 in SW 5.3 mph 10.4 mph 59 % 0.00 in
21:55 42.3 °F 29.0 °F 30.13 in WSW 6.9 mph 11.5 mph 59 % 0.00 in
22:00 42.4 °F 29.1 °F 30.13 in WSW 4.0 mph 11.5 mph 59 % 0.00 in
22:12 42.4 °F 28.7 °F 30.13 in SW 3.8 mph 11.5 mph 58 % 0.00 in
22:17 42.5 °F 28.8 °F 30.13 in West 7.1 mph 11.5 mph 58 % 0.00 in
22:22 42.5 °F 28.8 °F 30.13 in SW 5.6 mph 10.0 mph 58 % 0.00 in
22:28 42.5 °F 28.8 °F 30.13 in South 3.9 mph 6.9 mph 58 % 0.00 in
22:29 42.5 °F 28.8 °F 30.14 in SW 4.0 mph 10.0 mph 58 % 0.00 in
22:33 42.6 °F 28.8 °F 30.13 in SW 4.5 mph 13.8 mph 58 % 0.00 in
22:38 42.7 °F 28.9 °F 30.14 in SW 3.4 mph 10.4 mph 58 % 0.00 in
22:43 42.7 °F 28.9 °F 30.14 in SSW 4.7 mph 6.9 mph 58 % 0.00 in
23:03 43.1 °F 28.9 °F 30.14 in SW 4.6 mph 9.0 mph 57 % 0.00 in
23:08 43.1 °F 28.9 °F 30.15 in SW 4.4 mph 8.1 mph 57 % 0.00 in
23:13 43.0 °F 28.8 °F 30.15 in WSW 5.4 mph 9.0 mph 57 % 0.00 in
23:18 43.0 °F 28.8 °F 30.15 in SSW 2.6 mph 4.6 mph 57 % 0.00 in
23:23 42.8 °F 28.6 °F 30.15 in SSW 2.7 mph 5.8 mph 57 % 0.00 in
23:28 42.7 °F 28.5 °F 30.15 in WSW 0.6 mph 2.3 mph 57 % 0.00 in
23:33 42.6 °F 28.8 °F 30.15 in SSW 0.3 mph 3.5 mph 58 % 0.00 in
23:59 41.8 °F 28.5 °F 30.16 in WSW 3.2 mph 4.6 mph 59 % 0.00 in
Crab Meadow Weather
Compliments of Weather Underground - 2.5 mb

Script developed by  Jim McMurry - jmcmurry@mwt.net Adapted for the template by  Wim van der Kuil - Leuven-Template.eu

Astronomy: One year on Pluto is equal to 248 Earth years.